Marbella — IBSR — position and weather

sailwx.info

Track history (hours):
 
Tides and Currents Weather Stations Pressure Air Temp Water Temp Dewpoint Dewpoint Depression Visibility Wind Speed Wind Dir Waves Ship Positions

Marbella

Last reported at 2017-Nov-15 05:18 UTC. Time now 2017-Nov-22 07:36 UTC.
Position N 39°02' E 015°08'.

Length 108 m; draft 7.2 m.

Type: Cargo ship. MMSI: 247386700.

Date/timePositionNaut miles runAvg speedWind from/ knotsBaromVisibWave heightAir tempDewpointWater temp
2017-Nov-15 05:18N 39°02' E 015°08'311.4
2017-Nov-15 05:00N 38°59' E 015°10'1311.0
2017-Nov-15 03:51N 38°48' E 015°19'711.1
2017-Nov-15 03:14N 38°42' E 015°23'411.0
2017-Nov-15 02:51N 38°39' E 015°26'411.3
2017-Nov-15 02:30N 38°35' E 015°29'611.4
2017-Nov-15 02:00N 38°31' E 015°33'611.4
2017-Nov-15 01:30N 38°26' E 015°37'611.4
2017-Nov-15 01:00N 38°21' E 015°40'510.5
2017-Nov-15 00:30N 38°16' E 015°41'510.7
2017-Nov-15 00:00N 38°11' E 015°37'5 9.6
2017-Nov-14 23:30N 38°07' E 015°36'5 9.6
2017-Nov-14 23:01N 38°02' E 015°34'611.1
2017-Nov-14 22:30N 37°56' E 015°32'711.4
2017-Nov-14 21:50N 37°49' E 015°30'  
2017-Nov-08 20:42N 37°19' E 015°24'512.1
2017-Nov-08 20:20N 37°22' E 015°28'612.6
2017-Nov-08 19:50N 37°27' E 015°34'413.0
2017-Nov-08 19:30N 37°30' E 015°38'713.1
2017-Nov-08 18:56N 37°36' E 015°44'613.2
2017-Nov-08 18:30N 37°40' E 015°49'713.0
2017-Nov-08 17:58N 37°45' E 015°55'  
2017-Nov-05 09:27N 37°53' E 015°52'512.2
2017-Nov-05 09:00N 37°53' E 015°45'612.1
2017-Nov-05 08:30N 37°57' E 015°39'611.7
2017-Nov-05 08:00N 38°02' E 015°36'611.2
2017-Nov-05 07:30N 38°08' E 015°35'510.5
2017-Nov-05 07:00N 38°13' E 015°36'5 9.4
2017-Nov-05 06:27N 38°17' E 015°40'511.4
2017-Nov-05 06:00N 38°22' E 015°38'611.3
2017-Nov-05 05:30N 38°27' E 015°35'  
Track history (hours):
 
Tides and Currents Weather Stations Pressure Air Temp Water Temp Dewpoint Dewpoint Depression Visibility Wind Speed Wind Dir Waves Ship Positions

Marbella

Last reported at 2017-Nov-15 05:18 UTC. Time now 2017-Nov-22 07:36 UTC.
Position N 39°02' E 015°08'.

Length 108 m; draft 7.2 m.

Type: Cargo ship. MMSI: 247386700.

Date/timePositionNaut miles runAvg speedWind from/ knotsBaromVisibWave heightAir tempDewpointWater temp
2017-Nov-15 05:18N 39°02' E 015°08'311.4
2017-Nov-15 05:00N 38°59' E 015°10'1311.0
2017-Nov-15 03:51N 38°48' E 015°19'711.1
2017-Nov-15 03:14N 38°42' E 015°23'411.0
2017-Nov-15 02:51N 38°39' E 015°26'411.3
2017-Nov-15 02:30N 38°35' E 015°29'611.4
2017-Nov-15 02:00N 38°31' E 015°33'611.4
2017-Nov-15 01:30N 38°26' E 015°37'611.4
2017-Nov-15 01:00N 38°21' E 015°40'510.5
2017-Nov-15 00:30N 38°16' E 015°41'510.7
2017-Nov-15 00:00N 38°11' E 015°37'5 9.6
2017-Nov-14 23:30N 38°07' E 015°36'5 9.6
2017-Nov-14 23:01N 38°02' E 015°34'611.1
2017-Nov-14 22:30N 37°56' E 015°32'711.4
2017-Nov-14 21:50N 37°49' E 015°30'  
2017-Nov-08 20:42N 37°19' E 015°24'512.1
2017-Nov-08 20:20N 37°22' E 015°28'612.6
2017-Nov-08 19:50N 37°27' E 015°34'413.0
2017-Nov-08 19:30N 37°30' E 015°38'713.1
2017-Nov-08 18:56N 37°36' E 015°44'613.2
2017-Nov-08 18:30N 37°40' E 015°49'713.0
2017-Nov-08 17:58N 37°45' E 015°55'  
2017-Nov-05 09:27N 37°53' E 015°52'512.2
2017-Nov-05 09:00N 37°53' E 015°45'612.1
2017-Nov-05 08:30N 37°57' E 015°39'611.7
2017-Nov-05 08:00N 38°02' E 015°36'611.2
2017-Nov-05 07:30N 38°08' E 015°35'510.5
2017-Nov-05 07:00N 38°13' E 015°36'5 9.4
2017-Nov-05 06:27N 38°17' E 015°40'511.4
2017-Nov-05 06:00N 38°22' E 015°38'611.3
2017-Nov-05 05:30N 38°27' E 015°35'  

Dump ship's entire track history